sensor_id;sensor_type;location;lat;lon;timestamp;temperature;humidity
8436;DHT22;4255;48.730;9.156;2023-01-08T00:02:17;7.30;99.90
8436;DHT22;4255;48.730;9.156;2023-01-08T00:04:42;7.30;99.90
8436;DHT22;4255;48.730;9.156;2023-01-08T00:07:08;7.20;99.90
8436;DHT22;4255;48.730;9.156;2023-01-08T00:09:33;7.10;99.90
8436;DHT22;4255;48.730;9.156;2023-01-08T00:11:59;7.20;99.90
8436;DHT22;4255;48.730;9.156;2023-01-08T00:14:25;7.10;99.90
8436;DHT22;4255;48.730;9.156;2023-01-08T00:16:51;7.20;99.90
8436;DHT22;4255;48.730;9.156;2023-01-08T00:19:16;7.20;99.90
8436;DHT22;4255;48.730;9.156;2023-01-08T00:21:42;7.20;99.90
8436;DHT22;4255;48.730;9.156;2023-01-08T00:24:08;7.30;99.90
8436;DHT22;4255;48.730;9.156;2023-01-08T00:26:33;7.30;99.90
8436;DHT22;4255;48.730;9.156;2023-01-08T00:28:59;7.40;99.90
8436;DHT22;4255;48.730;9.156;2023-01-08T00:31:25;7.40;99.90
8436;DHT22;4255;48.730;9.156;2023-01-08T00:33:50;7.30;99.90
8436;DHT22;4255;48.730;9.156;2023-01-08T00:36:17;7.30;99.90
8436;DHT22;4255;48.730;9.156;2023-01-08T00:38:44;7.30;99.90
8436;DHT22;4255;48.730;9.156;2023-01-08T00:41:12;7.30;99.90
8436;DHT22;4255;48.730;9.156;2023-01-08T00:43:38;7.30;99.90
8436;DHT22;4255;48.730;9.156;2023-01-08T00:46:04;7.40;99.90
8436;DHT22;4255;48.730;9.156;2023-01-08T00:48:30;7.40;99.90
8436;DHT22;4255;48.730;9.156;2023-01-08T00:51:00;7.40;99.90
8436;DHT22;4255;48.730;9.156;2023-01-08T00:53:26;7.50;99.90
8436;DHT22;4255;48.730;9.156;2023-01-08T00:56:01;7.50;99.90
8436;DHT22;4255;48.730;9.156;2023-01-08T00:58:27;7.60;99.90
8436;DHT22;4255;48.730;9.156;2023-01-08T01:00:53;7.70;99.90
8436;DHT22;4255;48.730;9.156;2023-01-08T01:03:19;7.80;99.90
8436;DHT22;4255;48.730;9.156;2023-01-08T01:05:44;7.80;99.90
8436;DHT22;4255;48.730;9.156;2023-01-08T01:08:10;7.80;99.90
8436;DHT22;4255;48.730;9.156;2023-01-08T01:10:38;7.70;99.90
8436;DHT22;4255;48.730;9.156;2023-01-08T01:13:03;7.50;99.90
8436;DHT22;4255;48.730;9.156;2023-01-08T01:15:29;7.30;99.90
8436;DHT22;4255;48.730;9.156;2023-01-08T01:17:55;7.40;99.90
8436;DHT22;4255;48.730;9.156;2023-01-08T01:20:20;7.40;99.90
8436;DHT22;4255;48.730;9.156;2023-01-08T01:22:48;7.50;99.90
8436;DHT22;4255;48.730;9.156;2023-01-08T01:25:14;7.30;99.90
8436;DHT22;4255;48.730;9.156;2023-01-08T01:27:40;7.30;99.90
8436;DHT22;4255;48.730;9.156;2023-01-08T01:30:06;7.40;99.90
8436;DHT22;4255;48.730;9.156;2023-01-08T01:32:32;7.30;99.90
8436;DHT22;4255;48.730;9.156;2023-01-08T01:34:58;7.10;99.90
8436;DHT22;4255;48.730;9.156;2023-01-08T01:37:24;7.20;99.90
8436;DHT22;4255;48.730;9.156;2023-01-08T01:39:49;7.10;99.90
8436;DHT22;4255;48.730;9.156;2023-01-08T01:42:16;7.20;99.90
8436;DHT22;4255;48.730;9.156;2023-01-08T01:45:01;7.40;99.90
8436;DHT22;4255;48.730;9.156;2023-01-08T01:47:31;7.40;99.90
8436;DHT22;4255;48.730;9.156;2023-01-08T01:50:07;7.30;99.90
8436;DHT22;4255;48.730;9.156;2023-01-08T01:52:44;7.30;99.90
8436;DHT22;4255;48.730;9.156;2023-01-08T01:55:13;7.30;99.90
8436;DHT22;4255;48.730;9.156;2023-01-08T01:57:42;7.20;99.90
8436;DHT22;4255;48.730;9.156;2023-01-08T02:00:10;7.10;99.90
8436;DHT22;4255;48.730;9.156;2023-01-08T02:02:36;7.10;99.90
8436;DHT22;4255;48.730;9.156;2023-01-08T02:05:02;7.00;99.90
8436;DHT22;4255;48.730;9.156;2023-01-08T02:07:40;7.00;99.90
8436;DHT22;4255;48.730;9.156;2023-01-08T02:12:46;6.60;99.90
8436;DHT22;4255;48.730;9.156;2023-01-08T02:15:23;6.60;99.90
8436;DHT22;4255;48.730;9.156;2023-01-08T02:18:07;6.50;99.90
8436;DHT22;4255;48.730;9.156;2023-01-08T02:20:39;6.60;99.90
8436;DHT22;4255;48.730;9.156;2023-01-08T02:23:41;6.70;99.90
8436;DHT22;4255;48.730;9.156;2023-01-08T02:26:26;6.70;99.90
8436;DHT22;4255;48.730;9.156;2023-01-08T02:29:04;6.70;99.90
8436;DHT22;4255;48.730;9.156;2023-01-08T02:31:31;6.70;99.90
8436;DHT22;4255;48.730;9.156;2023-01-08T02:33:58;6.70;99.90
8436;DHT22;4255;48.730;9.156;2023-01-08T02:36:42;6.70;99.90
8436;DHT22;4255;48.730;9.156;2023-01-08T02:42:05;6.70;99.90
8436;DHT22;4255;48.730;9.156;2023-01-08T02:52:41;7.10;99.90
8436;DHT22;4255;48.730;9.156;2023-01-08T02:55:09;7.20;99.90
8436;DHT22;4255;48.730;9.156;2023-01-08T02:57:37;7.30;99.90
8436;DHT22;4255;48.730;9.156;2023-01-08T03:00:04;7.40;99.90
8436;DHT22;4255;48.730;9.156;2023-01-08T03:02:31;7.50;99.90
8436;DHT22;4255;48.730;9.156;2023-01-08T03:05:06;7.50;99.90
8436;DHT22;4255;48.730;9.156;2023-01-08T03:07:33;7.40;99.90
8436;DHT22;4255;48.730;9.156;2023-01-08T03:10:00;7.40;99.90
8436;DHT22;4255;48.730;9.156;2023-01-08T03:12:46;7.20;99.90
8436;DHT22;4255;48.730;9.156;2023-01-08T03:15:18;7.20;99.90
8436;DHT22;4255;48.730;9.156;2023-01-08T03:17:47;7.10;99.90
8436;DHT22;4255;48.730;9.156;2023-01-08T03:20:18;7.20;99.90
8436;DHT22;4255;48.730;9.156;2023-01-08T03:22:47;7.20;99.90
8436;DHT22;4255;48.730;9.156;2023-01-08T03:25:15;7.10;99.90
8436;DHT22;4255;48.730;9.156;2023-01-08T03:27:44;7.20;99.90
8436;DHT22;4255;48.730;9.156;2023-01-08T03:30:13;7.30;99.90
8436;DHT22;4255;48.730;9.156;2023-01-08T03:32:40;7.30;99.90
8436;DHT22;4255;48.730;9.156;2023-01-08T03:35:09;7.40;99.90
8436;DHT22;4255;48.730;9.156;2023-01-08T03:37:39;7.50;99.90
8436;DHT22;4255;48.730;9.156;2023-01-08T03:40:28;7.50;99.90
8436;DHT22;4255;48.730;9.156;2023-01-08T03:42:55;7.50;99.90
8436;DHT22;4255;48.730;9.156;2023-01-08T03:45:22;7.40;99.90
8436;DHT22;4255;48.730;9.156;2023-01-08T03:47:49;7.50;99.90
8436;DHT22;4255;48.730;9.156;2023-01-08T03:50:21;7.30;99.90
8436;DHT22;4255;48.730;9.156;2023-01-08T03:52:47;7.30;99.90
8436;DHT22;4255;48.730;9.156;2023-01-08T03:55:12;7.30;99.90
8436;DHT22;4255;48.730;9.156;2023-01-08T03:57:38;7.10;99.90
8436;DHT22;4255;48.730;9.156;2023-01-08T04:00:04;7.20;99.90
8436;DHT22;4255;48.730;9.156;2023-01-08T04:02:30;7.10;99.90
8436;DHT22;4255;48.730;9.156;2023-01-08T04:04:55;7.30;99.90
8436;DHT22;4255;48.730;9.156;2023-01-08T04:07:21;7.40;99.90
8436;DHT22;4255;48.730;9.156;2023-01-08T04:09:47;7.40;99.90
8436;DHT22;4255;48.730;9.156;2023-01-08T04:12:12;7.50;99.90
8436;DHT22;4255;48.730;9.156;2023-01-08T04:14:38;7.50;99.90
8436;DHT22;4255;48.730;9.156;2023-01-08T04:17:03;7.60;99.90
8436;DHT22;4255;48.730;9.156;2023-01-08T04:19:29;7.70;99.90
8436;DHT22;4255;48.730;9.156;2023-01-08T04:21:55;7.70;99.90
8436;DHT22;4255;48.730;9.156;2023-01-08T04:24:20;7.70;99.90
8436;DHT22;4255;48.730;9.156;2023-01-08T04:26:46;7.60;99.90
8436;DHT22;4255;48.730;9.156;2023-01-08T04:29:12;7.70;99.90
8436;DHT22;4255;48.730;9.156;2023-01-08T04:31:38;7.80;99.90
8436;DHT22;4255;48.730;9.156;2023-01-08T04:34:04;7.70;99.90
8436;DHT22;4255;48.730;9.156;2023-01-08T04:36:30;7.80;99.90
8436;DHT22;4255;48.730;9.156;2023-01-08T04:38:55;7.70;99.90
8436;DHT22;4255;48.730;9.156;2023-01-08T04:41:21;7.60;99.90
8436;DHT22;4255;48.730;9.156;2023-01-08T04:43:47;7.60;99.90
8436;DHT22;4255;48.730;9.156;2023-01-08T04:46:12;7.80;99.90
8436;DHT22;4255;48.730;9.156;2023-01-08T04:48:38;7.90;99.90
8436;DHT22;4255;48.730;9.156;2023-01-08T04:51:04;8.20;99.90
8436;DHT22;4255;48.730;9.156;2023-01-08T04:53:32;8.20;99.90
8436;DHT22;4255;48.730;9.156;2023-01-08T04:56:05;8.40;99.90
8436;DHT22;4255;48.730;9.156;2023-01-08T04:58:33;8.50;99.90
8436;DHT22;4255;48.730;9.156;2023-01-08T05:00:58;8.60;99.90
8436;DHT22;4255;48.730;9.156;2023-01-08T05:03:24;8.80;99.90
8436;DHT22;4255;48.730;9.156;2023-01-08T05:05:50;8.80;99.90
8436;DHT22;4255;48.730;9.156;2023-01-08T05:08:15;8.80;99.90
8436;DHT22;4255;48.730;9.156;2023-01-08T05:10:41;8.90;99.90
8436;DHT22;4255;48.730;9.156;2023-01-08T05:13:06;9.00;99.90
8436;DHT22;4255;48.730;9.156;2023-01-08T05:15:32;9.00;99.90
8436;DHT22;4255;48.730;9.156;2023-01-08T05:18:03;8.90;99.90
8436;DHT22;4255;48.730;9.156;2023-01-08T05:20:30;9.00;99.90
8436;DHT22;4255;48.730;9.156;2023-01-08T05:22:56;8.90;99.90
8436;DHT22;4255;48.730;9.156;2023-01-08T05:25:23;9.00;99.90
8436;DHT22;4255;48.730;9.156;2023-01-08T05:27:48;8.90;99.90
8436;DHT22;4255;48.730;9.156;2023-01-08T05:30:14;8.90;99.90
8436;DHT22;4255;48.730;9.156;2023-01-08T05:32:40;8.90;99.90
8436;DHT22;4255;48.730;9.156;2023-01-08T05:35:06;9.00;99.90
8436;DHT22;4255;48.730;9.156;2023-01-08T05:37:35;8.90;99.90
8436;DHT22;4255;48.730;9.156;2023-01-08T05:40:01;9.10;99.90
8436;DHT22;4255;48.730;9.156;2023-01-08T05:42:27;9.10;99.90
8436;DHT22;4255;48.730;9.156;2023-01-08T05:44:52;9.10;99.90
8436;DHT22;4255;48.730;9.156;2023-01-08T05:47:18;9.00;99.90
8436;DHT22;4255;48.730;9.156;2023-01-08T05:49:43;9.00;99.90
8436;DHT22;4255;48.730;9.156;2023-01-08T05:52:09;8.90;99.90
8436;DHT22;4255;48.730;9.156;2023-01-08T05:54:35;8.80;99.90
8436;DHT22;4255;48.730;9.156;2023-01-08T05:57:00;8.70;99.90
8436;DHT22;4255;48.730;9.156;2023-01-08T05:59:26;8.60;99.90
8436;DHT22;4255;48.730;9.156;2023-01-08T06:01:52;8.70;99.90
8436;DHT22;4255;48.730;9.156;2023-01-08T06:04:17;8.60;99.90
8436;DHT22;4255;48.730;9.156;2023-01-08T06:06:43;8.70;99.90
8436;DHT22;4255;48.730;9.156;2023-01-08T06:09:08;8.60;99.90
8436;DHT22;4255;48.730;9.156;2023-01-08T06:11:34;8.60;99.90
8436;DHT22;4255;48.730;9.156;2023-01-08T06:14:00;8.70;99.90
8436;DHT22;4255;48.730;9.156;2023-01-08T06:16:25;8.70;99.90
8436;DHT22;4255;48.730;9.156;2023-01-08T06:18:51;8.70;99.90
8436;DHT22;4255;48.730;9.156;2023-01-08T06:21:16;8.70;99.90
8436;DHT22;4255;48.730;9.156;2023-01-08T06:23:42;8.80;99.90
8436;DHT22;4255;48.730;9.156;2023-01-08T06:26:08;8.70;99.90
8436;DHT22;4255;48.730;9.156;2023-01-08T06:28:34;8.70;99.90
8436;DHT22;4255;48.730;9.156;2023-01-08T06:31:01;8.60;99.90
8436;DHT22;4255;48.730;9.156;2023-01-08T06:33:27;8.70;99.90
8436;DHT22;4255;48.730;9.156;2023-01-08T06:35:53;8.70;99.90
8436;DHT22;4255;48.730;9.156;2023-01-08T06:38:19;8.60;99.90
8436;DHT22;4255;48.730;9.156;2023-01-08T06:40:45;8.60;99.90
8436;DHT22;4255;48.730;9.156;2023-01-08T06:43:11;8.50;99.90
8436;DHT22;4255;48.730;9.156;2023-01-08T06:45:37;8.40;99.90
8436;DHT22;4255;48.730;9.156;2023-01-08T06:48:04;8.40;99.90
8436;DHT22;4255;48.730;9.156;2023-01-08T06:50:30;8.50;99.90
8436;DHT22;4255;48.730;9.156;2023-01-08T06:52:56;8.50;99.90
8436;DHT22;4255;48.730;9.156;2023-01-08T06:55:23;8.40;99.90
8436;DHT22;4255;48.730;9.156;2023-01-08T06:57:56;8.20;99.90
8436;DHT22;4255;48.730;9.156;2023-01-08T07:00:23;8.20;99.90
8436;DHT22;4255;48.730;9.156;2023-01-08T07:02:51;8.30;99.90
8436;DHT22;4255;48.730;9.156;2023-01-08T07:05:16;8.40;99.90
8436;DHT22;4255;48.730;9.156;2023-01-08T07:07:42;8.40;99.90
8436;DHT22;4255;48.730;9.156;2023-01-08T07:10:08;8.50;99.90
8436;DHT22;4255;48.730;9.156;2023-01-08T07:12:34;8.40;99.90
8436;DHT22;4255;48.730;9.156;2023-01-08T07:15:00;8.40;99.90
8436;DHT22;4255;48.730;9.156;2023-01-08T07:17:26;8.30;99.90
8436;DHT22;4255;48.730;9.156;2023-01-08T07:19:51;8.20;99.90
8436;DHT22;4255;48.730;9.156;2023-01-08T07:22:17;8.30;99.90
8436;DHT22;4255;48.730;9.156;2023-01-08T07:24:42;8.30;99.90
8436;DHT22;4255;48.730;9.156;2023-01-08T07:27:08;8.30;99.90
8436;DHT22;4255;48.730;9.156;2023-01-08T07:29:34;8.20;99.90
8436;DHT22;4255;48.730;9.156;2023-01-08T07:31:59;8.20;99.90
8436;DHT22;4255;48.730;9.156;2023-01-08T07:34:25;8.20;99.90
8436;DHT22;4255;48.730;9.156;2023-01-08T07:36:50;8.30;99.90
8436;DHT22;4255;48.730;9.156;2023-01-08T07:39:16;8.40;99.90
8436;DHT22;4255;48.730;9.156;2023-01-08T07:41:42;8.50;99.90
8436;DHT22;4255;48.730;9.156;2023-01-08T07:44:09;8.40;99.90
8436;DHT22;4255;48.730;9.156;2023-01-08T07:46:34;8.30;99.90
8436;DHT22;4255;48.730;9.156;2023-01-08T07:49:00;8.30;99.90
8436;DHT22;4255;48.730;9.156;2023-01-08T07:51:26;8.20;99.90
8436;DHT22;4255;48.730;9.156;2023-01-08T07:53:51;8.20;99.90
8436;DHT22;4255;48.730;9.156;2023-01-08T07:56:17;8.20;99.90
8436;DHT22;4255;48.730;9.156;2023-01-08T07:58:43;8.20;99.90
8436;DHT22;4255;48.730;9.156;2023-01-08T08:01:11;8.20;99.90
8436;DHT22;4255;48.730;9.156;2023-01-08T08:03:37;8.20;99.90
8436;DHT22;4255;48.730;9.156;2023-01-08T08:06:03;8.10;99.90
8436;DHT22;4255;48.730;9.156;2023-01-08T08:08:29;8.20;99.90
8436;DHT22;4255;48.730;9.156;2023-01-08T08:10:54;8.30;99.90
8436;DHT22;4255;48.730;9.156;2023-01-08T08:13:20;8.20;99.90
8436;DHT22;4255;48.730;9.156;2023-01-08T08:15:46;8.20;99.90
8436;DHT22;4255;48.730;9.156;2023-01-08T08:18:12;8.20;99.90
8436;DHT22;4255;48.730;9.156;2023-01-08T08:20:38;8.20;99.90
8436;DHT22;4255;48.730;9.156;2023-01-08T08:23:09;8.10;99.90
8436;DHT22;4255;48.730;9.156;2023-01-08T08:25:35;8.20;99.90
8436;DHT22;4255;48.730;9.156;2023-01-08T08:28:02;8.20;99.90
8436;DHT22;4255;48.730;9.156;2023-01-08T08:30:30;8.20;99.90
8436;DHT22;4255;48.730;9.156;2023-01-08T08:32:59;8.20;99.90
8436;DHT22;4255;48.730;9.156;2023-01-08T08:35:26;8.20;99.90
8436;DHT22;4255;48.730;9.156;2023-01-08T08:37:53;8.10;99.90
8436;DHT22;4255;48.730;9.156;2023-01-08T08:40:18;8.10;99.90
8436;DHT22;4255;48.730;9.156;2023-01-08T08:42:44;8.20;99.90
8436;DHT22;4255;48.730;9.156;2023-01-08T08:45:10;8.30;99.90
8436;DHT22;4255;48.730;9.156;2023-01-08T08:47:35;8.30;99.90
8436;DHT22;4255;48.730;9.156;2023-01-08T08:50:01;8.10;99.90
8436;DHT22;4255;48.730;9.156;2023-01-08T08:52:28;8.20;99.90
8436;DHT22;4255;48.730;9.156;2023-01-08T08:54:54;8.30;99.90
8436;DHT22;4255;48.730;9.156;2023-01-08T08:57:22;8.40;99.90
8436;DHT22;4255;48.730;9.156;2023-01-08T08:59:48;8.30;99.90
8436;DHT22;4255;48.730;9.156;2023-01-08T09:02:13;8.30;99.90
8436;DHT22;4255;48.730;9.156;2023-01-08T09:04:39;8.20;99.90
8436;DHT22;4255;48.730;9.156;2023-01-08T09:07:04;8.20;99.90
8436;DHT22;4255;48.730;9.156;2023-01-08T09:09:30;8.30;99.90
8436;DHT22;4255;48.730;9.156;2023-01-08T09:11:56;8.40;99.90
8436;DHT22;4255;48.730;9.156;2023-01-08T09:14:22;8.40;99.90
8436;DHT22;4255;48.730;9.156;2023-01-08T09:16:47;8.40;99.90
8436;DHT22;4255;48.730;9.156;2023-01-08T09:19:13;8.40;99.90
8436;DHT22;4255;48.730;9.156;2023-01-08T09:21:38;8.30;99.90
8436;DHT22;4255;48.730;9.156;2023-01-08T09:24:04;8.40;99.90
8436;DHT22;4255;48.730;9.156;2023-01-08T09:26:30;8.30;99.90
8436;DHT22;4255;48.730;9.156;2023-01-08T09:28:57;8.30;99.90
8436;DHT22;4255;48.730;9.156;2023-01-08T09:31:23;8.30;99.90
8436;DHT22;4255;48.730;9.156;2023-01-08T09:33:49;8.50;99.90
8436;DHT22;4255;48.730;9.156;2023-01-08T09:36:17;8.50;99.90
8436;DHT22;4255;48.730;9.156;2023-01-08T09:38:43;8.60;99.90
8436;DHT22;4255;48.730;9.156;2023-01-08T09:41:21;8.70;99.90
8436;DHT22;4255;48.730;9.156;2023-01-08T09:43:51;8.80;99.90
8436;DHT22;4255;48.730;9.156;2023-01-08T09:46:20;8.90;99.90
8436;DHT22;4255;48.730;9.156;2023-01-08T09:48:47;8.80;99.90
8436;DHT22;4255;48.730;9.156;2023-01-08T09:51:16;8.80;99.90
8436;DHT22;4255;48.730;9.156;2023-01-08T09:53:43;8.80;99.90
8436;DHT22;4255;48.730;9.156;2023-01-08T09:56:12;8.90;99.90
8436;DHT22;4255;48.730;9.156;2023-01-08T09:58:51;8.90;99.90
8436;DHT22;4255;48.730;9.156;2023-01-08T10:01:20;8.90;99.90
8436;DHT22;4255;48.730;9.156;2023-01-08T10:06:52;9.00;99.90
8436;DHT22;4255;48.730;9.156;2023-01-08T10:09:25;8.90;99.90
8436;DHT22;4255;48.730;9.156;2023-01-08T10:11:53;9.00;99.90
8436;DHT22;4255;48.730;9.156;2023-01-08T10:14:24;9.10;99.90
8436;DHT22;4255;48.730;9.156;2023-01-08T10:17:06;9.20;99.90
8436;DHT22;4255;48.730;9.156;2023-01-08T10:19:32;9.30;99.90
8436;DHT22;4255;48.730;9.156;2023-01-08T10:21:58;9.30;99.90
8436;DHT22;4255;48.730;9.156;2023-01-08T10:24:36;9.20;99.90
8436;DHT22;4255;48.730;9.156;2023-01-08T10:27:09;9.10;99.90
8436;DHT22;4255;48.730;9.156;2023-01-08T10:29:36;9.20;99.90
8436;DHT22;4255;48.730;9.156;2023-01-08T10:32:16;9.40;99.90
8436;DHT22;4255;48.730;9.156;2023-01-08T10:34:50;9.30;99.90
8436;DHT22;4255;48.730;9.156;2023-01-08T10:39:47;9.40;99.90
8436;DHT22;4255;48.730;9.156;2023-01-08T10:42:15;9.50;99.90
8436;DHT22;4255;48.730;9.156;2023-01-08T10:44:55;9.50;99.90
8436;DHT22;4255;48.730;9.156;2023-01-08T10:47:22;9.50;99.90
8436;DHT22;4255;48.730;9.156;2023-01-08T10:49:49;9.50;99.90
8436;DHT22;4255;48.730;9.156;2023-01-08T10:52:33;9.50;99.90
8436;DHT22;4255;48.730;9.156;2023-01-08T10:57:55;9.60;99.90
8436;DHT22;4255;48.730;9.156;2023-01-08T11:00:32;9.60;99.90
8436;DHT22;4255;48.730;9.156;2023-01-08T11:03:01;9.70;99.90
8436;DHT22;4255;48.730;9.156;2023-01-08T11:05:38;9.70;99.90
8436;DHT22;4255;48.730;9.156;2023-01-08T11:08:16;9.90;99.90
8436;DHT22;4255;48.730;9.156;2023-01-08T11:10:43;9.90;99.90
8436;DHT22;4255;48.730;9.156;2023-01-08T11:13:18;9.80;99.90
8436;DHT22;4255;48.730;9.156;2023-01-08T11:15:44;9.90;99.90
8436;DHT22;4255;48.730;9.156;2023-01-08T11:18:18;10.10;99.90
8436;DHT22;4255;48.730;9.156;2023-01-08T11:20:45;10.20;99.90
8436;DHT22;4255;48.730;9.156;2023-01-08T11:23:21;10.10;99.90
8436;DHT22;4255;48.730;9.156;2023-01-08T11:25:54;10.20;99.90
8436;DHT22;4255;48.730;9.156;2023-01-08T11:37:27;10.40;99.90
8436;DHT22;4255;48.730;9.156;2023-01-08T11:39:54;10.30;99.90
8436;DHT22;4255;48.730;9.156;2023-01-08T11:50:28;10.50;99.90
8436;DHT22;4255;48.730;9.156;2023-01-08T11:58:21;10.80;99.90
8436;DHT22;4255;48.730;9.156;2023-01-08T12:04:00;10.60;99.90
8436;DHT22;4255;48.730;9.156;2023-01-08T12:07:16;10.60;99.90
8436;DHT22;4255;48.730;9.156;2023-01-08T12:09:39;10.60;99.90
8436;DHT22;4255;48.730;9.156;2023-01-08T12:15:18;10.70;99.90
8436;DHT22;4255;48.730;9.156;2023-01-08T12:20:55;10.50;99.90
8436;DHT22;4255;48.730;9.156;2023-01-08T12:26:45;10.40;99.90
8436;DHT22;4255;48.730;9.156;2023-01-08T12:29:29;10.60;99.90
8436;DHT22;4255;48.730;9.156;2023-01-08T12:32:12;10.60;99.90
8436;DHT22;4255;48.730;9.156;2023-01-08T12:40:23;10.90;99.90
8436;DHT22;4255;48.730;9.156;2023-01-08T12:42:49;10.80;99.90
8436;DHT22;4255;48.730;9.156;2023-01-08T12:45:19;10.70;99.90
8436;DHT22;4255;48.730;9.156;2023-01-08T12:47:51;10.80;99.90
8436;DHT22;4255;48.730;9.156;2023-01-08T12:58:18;11.10;99.90
8436;DHT22;4255;48.730;9.156;2023-01-08T13:03:32;11.10;99.90
8436;DHT22;4255;48.730;9.156;2023-01-08T13:06:10;11.10;99.90
8436;DHT22;4255;48.730;9.156;2023-01-08T13:08:37;11.00;99.90
8436;DHT22;4255;48.730;9.156;2023-01-08T13:11:03;11.00;99.90
8436;DHT22;4255;48.730;9.156;2023-01-08T13:13:31;11.00;99.90
8436;DHT22;4255;48.730;9.156;2023-01-08T13:18:36;10.90;99.90
8436;DHT22;4255;48.730;9.156;2023-01-08T13:21:03;10.80;99.90
8436;DHT22;4255;48.730;9.156;2023-01-08T13:23:34;10.90;99.90
8436;DHT22;4255;48.730;9.156;2023-01-08T13:26:02;10.80;99.90
8436;DHT22;4255;48.730;9.156;2023-01-08T13:33:49;10.70;99.90
8436;DHT22;4255;48.730;9.156;2023-01-08T13:38:43;10.80;99.90
8436;DHT22;4255;48.730;9.156;2023-01-08T13:41:27;10.80;99.90
8436;DHT22;4255;48.730;9.156;2023-01-08T13:44:05;10.80;99.90
8436;DHT22;4255;48.730;9.156;2023-01-08T13:46:35;10.80;99.90
8436;DHT22;4255;48.730;9.156;2023-01-08T13:49:05;10.80;99.90
8436;DHT22;4255;48.730;9.156;2023-01-08T13:51:41;10.70;99.90
8436;DHT22;4255;48.730;9.156;2023-01-08T13:56:36;10.80;99.90
8436;DHT22;4255;48.730;9.156;2023-01-08T13:59:03;11.00;99.90
8436;DHT22;4255;48.730;9.156;2023-01-08T14:01:30;11.00;99.90
8436;DHT22;4255;48.730;9.156;2023-01-08T14:03:56;11.10;99.90
8436;DHT22;4255;48.730;9.156;2023-01-08T14:06:26;11.30;99.90
8436;DHT22;4255;48.730;9.156;2023-01-08T14:08:59;11.40;99.90
8436;DHT22;4255;48.730;9.156;2023-01-08T14:11:41;11.40;99.90
8436;DHT22;4255;48.730;9.156;2023-01-08T14:14:13;11.30;99.90
8436;DHT22;4255;48.730;9.156;2023-01-08T14:16:40;11.00;99.90
8436;DHT22;4255;48.730;9.156;2023-01-08T14:19:06;11.00;99.90
8436;DHT22;4255;48.730;9.156;2023-01-08T14:21:33;11.20;99.90
8436;DHT22;4255;48.730;9.156;2023-01-08T14:23:58;11.20;99.90
8436;DHT22;4255;48.730;9.156;2023-01-08T14:26:35;11.30;99.90
8436;DHT22;4255;48.730;9.156;2023-01-08T14:29:08;11.20;99.90
8436;DHT22;4255;48.730;9.156;2023-01-08T14:31:36;11.10;99.90
8436;DHT22;4255;48.730;9.156;2023-01-08T14:34:03;11.10;99.90
8436;DHT22;4255;48.730;9.156;2023-01-08T14:36:29;10.80;99.90
8436;DHT22;4255;48.730;9.156;2023-01-08T14:38:55;11.00;99.90
8436;DHT22;4255;48.730;9.156;2023-01-08T14:41:34;11.00;99.90
8436;DHT22;4255;48.730;9.156;2023-01-08T14:44:20;10.90;99.90
8436;DHT22;4255;48.730;9.156;2023-01-08T14:46:47;11.00;99.90
8436;DHT22;4255;48.730;9.156;2023-01-08T14:49:25;11.10;99.90
8436;DHT22;4255;48.730;9.156;2023-01-08T14:51:51;11.10;99.90
8436;DHT22;4255;48.730;9.156;2023-01-08T14:54:21;11.10;99.90
8436;DHT22;4255;48.730;9.156;2023-01-08T14:56:50;11.10;99.90
8436;DHT22;4255;48.730;9.156;2023-01-08T14:59:20;11.20;99.90
8436;DHT22;4255;48.730;9.156;2023-01-08T15:01:57;11.20;99.90
8436;DHT22;4255;48.730;9.156;2023-01-08T15:04:24;11.30;99.90
8436;DHT22;4255;48.730;9.156;2023-01-08T15:06:51;11.10;99.90
8436;DHT22;4255;48.730;9.156;2023-01-08T15:09:25;11.30;99.90
8436;DHT22;4255;48.730;9.156;2023-01-08T15:11:56;11.30;99.90
8436;DHT22;4255;48.730;9.156;2023-01-08T15:14:24;11.50;99.90
8436;DHT22;4255;48.730;9.156;2023-01-08T15:16:52;11.60;99.90
8436;DHT22;4255;48.730;9.156;2023-01-08T15:19:27;11.60;99.90
8436;DHT22;4255;48.730;9.156;2023-01-08T15:21:55;11.60;99.90
8436;DHT22;4255;48.730;9.156;2023-01-08T15:24:35;11.60;99.90
8436;DHT22;4255;48.730;9.156;2023-01-08T15:27:03;11.60;99.90
8436;DHT22;4255;48.730;9.156;2023-01-08T15:29:46;11.50;99.90
8436;DHT22;4255;48.730;9.156;2023-01-08T15:34:41;11.00;99.90
8436;DHT22;4255;48.730;9.156;2023-01-08T15:37:07;11.00;99.90
8436;DHT22;4255;48.730;9.156;2023-01-08T15:39:32;11.00;99.90
8436;DHT22;4255;48.730;9.156;2023-01-08T15:42:18;10.70;99.90
8436;DHT22;4255;48.730;9.156;2023-01-08T15:45:04;10.50;99.90
8436;DHT22;4255;48.730;9.156;2023-01-08T15:47:30;10.60;99.90
8436;DHT22;4255;48.730;9.156;2023-01-08T15:49:56;10.70;99.90
8436;DHT22;4255;48.730;9.156;2023-01-08T15:52:23;10.70;99.90
8436;DHT22;4255;48.730;9.156;2023-01-08T15:54:57;10.80;99.90
8436;DHT22;4255;48.730;9.156;2023-01-08T15:57:23;10.90;99.90
8436;DHT22;4255;48.730;9.156;2023-01-08T15:59:49;11.00;99.90
8436;DHT22;4255;48.730;9.156;2023-01-08T16:02:14;11.10;99.90
8436;DHT22;4255;48.730;9.156;2023-01-08T16:04:41;11.20;99.90
8436;DHT22;4255;48.730;9.156;2023-01-08T16:07:07;11.40;99.90
8436;DHT22;4255;48.730;9.156;2023-01-08T16:09:32;11.50;99.90
8436;DHT22;4255;48.730;9.156;2023-01-08T16:11:58;11.60;99.90
8436;DHT22;4255;48.730;9.156;2023-01-08T16:14:23;11.60;99.90
8436;DHT22;4255;48.730;9.156;2023-01-08T16:16:49;11.70;99.90
8436;DHT22;4255;48.730;9.156;2023-01-08T16:19:15;11.70;99.90
8436;DHT22;4255;48.730;9.156;2023-01-08T16:21:40;11.60;99.90
8436;DHT22;4255;48.730;9.156;2023-01-08T16:24:12;11.50;99.90
8436;DHT22;4255;48.730;9.156;2023-01-08T16:26:38;11.50;99.90
8436;DHT22;4255;48.730;9.156;2023-01-08T16:29:04;11.40;99.90
8436;DHT22;4255;48.730;9.156;2023-01-08T16:31:29;11.40;99.90
8436;DHT22;4255;48.730;9.156;2023-01-08T16:34:00;11.40;99.90
8436;DHT22;4255;48.730;9.156;2023-01-08T16:36:26;11.30;99.90
8436;DHT22;4255;48.730;9.156;2023-01-08T16:38:51;11.20;99.90
8436;DHT22;4255;48.730;9.156;2023-01-08T16:41:17;11.00;99.90
8436;DHT22;4255;48.730;9.156;2023-01-08T16:43:43;10.90;99.90
8436;DHT22;4255;48.730;9.156;2023-01-08T16:46:14;10.90;99.90
8436;DHT22;4255;48.730;9.156;2023-01-08T16:48:41;10.80;99.90
8436;DHT22;4255;48.730;9.156;2023-01-08T16:51:07;10.80;99.90
8436;DHT22;4255;48.730;9.156;2023-01-08T16:53:33;10.90;99.90
8436;DHT22;4255;48.730;9.156;2023-01-08T16:56:00;11.00;99.90
8436;DHT22;4255;48.730;9.156;2023-01-08T16:58:26;11.10;99.90
8436;DHT22;4255;48.730;9.156;2023-01-08T17:00:54;11.20;99.90
8436;DHT22;4255;48.730;9.156;2023-01-08T17:03:19;11.00;99.90
8436;DHT22;4255;48.730;9.156;2023-01-08T17:05:45;10.90;99.90
8436;DHT22;4255;48.730;9.156;2023-01-08T17:08:10;11.00;99.90
8436;DHT22;4255;48.730;9.156;2023-01-08T17:10:40;11.10;99.90
8436;DHT22;4255;48.730;9.156;2023-01-08T17:13:06;11.20;99.90
8436;DHT22;4255;48.730;9.156;2023-01-08T17:15:31;11.40;99.90
8436;DHT22;4255;48.730;9.156;2023-01-08T17:17:57;11.50;99.90
8436;DHT22;4255;48.730;9.156;2023-01-08T17:20:23;11.60;99.90
8436;DHT22;4255;48.730;9.156;2023-01-08T17:22:49;11.60;99.90
8436;DHT22;4255;48.730;9.156;2023-01-08T17:25:15;11.70;99.90
8436;DHT22;4255;48.730;9.156;2023-01-08T17:27:41;11.70;99.90
8436;DHT22;4255;48.730;9.156;2023-01-08T17:30:08;11.80;99.90
8436;DHT22;4255;48.730;9.156;2023-01-08T17:32:34;11.80;99.90
8436;DHT22;4255;48.730;9.156;2023-01-08T17:35:00;11.80;99.90
8436;DHT22;4255;48.730;9.156;2023-01-08T17:37:28;11.70;99.90
8436;DHT22;4255;48.730;9.156;2023-01-08T17:39:54;11.60;99.90
8436;DHT22;4255;48.730;9.156;2023-01-08T17:42:20;11.50;99.90
8436;DHT22;4255;48.730;9.156;2023-01-08T17:44:48;11.40;99.90
8436;DHT22;4255;48.730;9.156;2023-01-08T17:47:14;11.40;99.90
8436;DHT22;4255;48.730;9.156;2023-01-08T17:49:40;11.40;99.90